Time;durP1;ratioP1;P1;durP2;ratioP2;P2;SDS_P1;SDS_P2;PMS_P1;PMS_P2;Temp;Humidity;BMP_temperature;BMP_pressure;BME280_temperature;BME280_humidity;BME280_pressure;Samples;Min_cycle;Max_cycle;Signal;HPM_P1;HPM_P2
2021/11/09 00:00:37;;;;;;;9.30;7.20;;;6.00;99.90;;;;;;4982849;28;20905;-79
2021/11/09 00:03:10;;;;;;;9.47;6.97;;;6.10;99.90;;;;;;4947103;29;20381;-80
2021/11/09 00:06:10;;;;;;;10.03;8.87;;;6.30;99.90;;;;;;4917422;29;20385;-80
2021/11/09 00:09:05;;;;;;;8.53;7.37;;;6.50;99.90;;;;;;4898506;29;20483;-80
2021/11/09 00:12:00;;;;;;;12.77;9.37;;;6.60;99.90;;;;;;4872416;29;20412;-79
2021/11/09 00:14:26;;;;;;;18.90;10.40;;;6.50;99.90;;;;;;4808020;29;20403;-77
2021/11/09 00:16:54;;;;;;;11.63;8.63;;;6.40;99.90;;;;;;4837454;29;20392;-78
2021/11/09 00:19:25;;;;;;;13.67;8.00;;;6.40;99.90;;;;;;4837123;29;20413;-79
2021/11/09 00:21:58;;;;;;;8.97;6.50;;;6.30;99.90;;;;;;4816243;29;20448;-79
2021/11/09 00:24:44;;;;;;;7.60;6.90;;;6.20;99.90;;;;;;4804356;29;20393;-80
2021/11/09 00:27:15;;;;;;;10.40;7.00;;;6.10;99.90;;;;;;4818954;29;20400;-80
2021/11/09 00:29:45;;;;;;;8.90;7.60;;;6.10;99.90;;;;;;4839006;29;20950;-80
2021/11/09 00:32:16;;;;;;;16.83;7.30;;;6.10;99.90;;;;;;4834042;29;20427;-80
2021/11/09 00:34:44;;;;;;;9.30;7.20;;;6.10;99.90;;;;;;4845524;29;20400;-80
2021/11/09 00:37:11;;;;;;;7.60;6.90;;;6.10;99.90;;;;;;4833263;29;20407;-80
2021/11/09 00:39:43;;;;;;;8.77;7.87;;;6.30;99.90;;;;;;4849383;29;20484;-80
2021/11/09 00:42:13;;;;;;;12.77;7.10;;;6.40;99.90;;;;;;4847444;29;20510;-80
2021/11/09 00:44:39;;;;;;;15.60;7.37;;;6.20;99.90;;;;;;4893013;29;20450;-80
2021/11/09 00:47:08;;;;;;;10.53;7.30;;;6.20;99.90;;;;;;4907832;29;20417;-80
2021/11/09 00:49:35;;;;;;;9.10;6.90;;;6.20;99.90;;;;;;4907637;29;20453;-79
2021/11/09 00:52:19;;;;;;;18.23;6.13;;;6.20;99.90;;;;;;4935584;29;20823;-79
2021/11/09 00:55:09;;;;;;;8.47;7.77;;;6.30;99.90;;;;;;4883522;29;20378;-80
2021/11/09 00:57:42;;;;;;;10.17;6.90;;;6.10;99.90;;;;;;4943320;29;20894;-80
2021/11/09 01:00:32;;;;;;;9.73;7.87;;;6.30;99.90;;;;;;4912595;29;20435;-80
2021/11/09 01:03:03;;;;;;;16.20;7.53;;;6.50;99.90;;;;;;4907150;29;20380;-80
2021/11/09 01:05:30;;;;;;;10.40;8.17;;;6.60;99.90;;;;;;4934867;29;20412;-80
2021/11/09 01:08:05;;;;;;;14.90;8.07;;;6.50;99.90;;;;;;4902483;29;20425;-80
2021/11/09 01:10:39;;;;;;;7.33;5.83;;;6.40;99.90;;;;;;4895000;29;20431;-80
2021/11/09 01:13:28;;;;;;;7.67;6.47;;;6.20;99.90;;;;;;4891669;29;20413;-80
2021/11/09 01:15:57;;;;;;;14.60;7.77;;;6.10;99.90;;;;;;4853205;29;20416;-79
2021/11/09 01:18:27;;;;;;;10.17;6.50;;;6.10;99.90;;;;;;4851045;29;20482;-80
2021/11/09 01:20:56;;;;;;;10.50;7.03;;;6.10;99.90;;;;;;4839830;29;20446;-80
2021/11/09 01:23:28;;;;;;;22.03;9.27;;;6.00;99.90;;;;;;4852166;29;20399;-80
2021/11/09 01:26:00;;;;;;;14.63;7.30;;;6.10;99.90;;;;;;4850467;29;20435;-79
2021/11/09 01:28:36;;;;;;;11.70;7.80;;;6.10;99.90;;;;;;4865711;29;20395;-79
2021/11/09 01:31:06;;;;;;;8.50;6.77;;;6.10;99.90;;;;;;4839703;29;20391;-80
2021/11/09 01:34:13;;;;;;;8.17;6.17;;;6.20;99.90;;;;;;4857390;29;20412;-78
2021/11/09 01:36:40;;;;;;;6.67;5.83;;;6.20;99.90;;;;;;4788305;29;21109;-79
2021/11/09 01:39:32;;;;;;;6.20;5.60;;;6.00;99.90;;;;;;4868941;29;20442;-78
2021/11/09 01:41:58;;;;;;;8.97;6.93;;;6.00;99.90;;;;;;4829316;29;20494;-80
2021/11/09 01:44:28;;;;;;;7.80;5.83;;;6.10;99.90;;;;;;4868597;29;20403;-80
2021/11/09 01:47:15;;;;;;;11.47;7.47;;;6.10;99.90;;;;;;4852680;29;20459;-80
2021/11/09 01:49:41;;;;;;;7.77;6.80;;;6.10;99.90;;;;;;4852166;29;20493;-80
2021/11/09 01:52:13;;;;;;;8.77;7.07;;;6.20;99.90;;;;;;4849463;29;20463;-80
2021/11/09 01:54:45;;;;;;;9.43;6.70;;;6.20;99.90;;;;;;4912255;29;20382;-80
2021/11/09 01:57:32;;;;;;;14.07;7.40;;;6.10;99.90;;;;;;4927973;29;20391;-80
2021/11/09 02:00:03;;;;;;;6.77;6.10;;;6.10;99.90;;;;;;4895480;29;20817;-80
2021/11/09 02:02:56;;;;;;;9.03;7.37;;;6.10;99.90;;;;;;4913064;29;20850;-80
2021/11/09 02:05:28;;;;;;;18.07;7.47;;;6.10;99.90;;;;;;4840602;29;20390;-79
2021/11/09 02:08:01;;;;;;;12.40;6.73;;;5.90;99.90;;;;;;4855241;29;20480;-80
2021/11/09 02:10:36;;;;;;;7.40;6.60;;;6.00;99.90;;;;;;4871298;29;20402;-80
2021/11/09 02:13:04;;;;;;;9.73;6.90;;;6.10;99.90;;;;;;4856887;29;20429;-80
2021/11/09 02:15:31;;;;;;;8.47;7.40;;;6.20;99.90;;;;;;4856000;29;20402;-80
2021/11/09 02:17:58;;;;;;;14.47;7.90;;;6.20;99.90;;;;;;4863578;29;20459;-80
2021/11/09 02:20:29;;;;;;;8.97;7.30;;;6.10;99.90;;;;;;4908068;29;20476;-80
2021/11/09 02:22:59;;;;;;;8.87;6.47;;;6.10;99.90;;;;;;4875845;29;20414;-80
2021/11/09 02:25:30;;;;;;;15.67;7.07;;;6.20;99.90;;;;;;4890916;29;20410;-80
2021/11/09 02:28:00;;;;;;;12.77;8.67;;;6.00;99.90;;;;;;4889397;29;20563;-80
2021/11/09 02:30:28;;;;;;;13.53;8.83;;;6.10;99.90;;;;;;4874572;29;20424;-80
2021/11/09 02:32:58;;;;;;;12.40;8.07;;;6.10;99.90;;;;;;4890975;29;20441;-80
2021/11/09 02:35:25;;;;;;;11.63;8.73;;;6.20;99.90;;;;;;4929021;29;20427;-80
2021/11/09 02:37:55;;;;;;;14.20;7.87;;;6.00;99.90;;;;;;4952766;29;20418;-79
2021/11/09 02:40:31;;;;;;;13.23;8.20;;;6.00;99.90;;;;;;4936928;29;20460;-80
2021/11/09 02:43:00;;;;;;;11.93;7.20;;;6.00;99.90;;;;;;4919135;29;20396;-80
2021/11/09 02:45:37;;;;;;;9.27;6.60;;;5.90;99.90;;;;;;4948972;29;20421;-80
2021/11/09 02:48:12;;;;;;;13.23;6.90;;;6.00;99.90;;;;;;4949653;29;20411;-79
2021/11/09 02:50:44;;;;;;;9.80;5.87;;;5.80;99.90;;;;;;4939027;28;20900;-80
2021/11/09 02:53:23;;;;;;;9.80;6.27;;;5.80;99.90;;;;;;4965198;29;20506;-80
2021/11/09 02:58:46;;;;;;;19.70;9.37;;;5.80;99.90;;;;;;4922472;29;20418;-80
2021/11/09 03:01:33;;;;;;;9.97;6.80;;;5.80;99.90;;;;;;4897521;29;20430;-80
2021/11/09 03:04:14;;;;;;;9.73;6.20;;;5.80;99.90;;;;;;4907656;29;20406;-80
2021/11/09 03:06:48;;;;;;;10.70;7.33;;;5.80;99.90;;;;;;4876007;29;20421;-80
2021/11/09 03:09:20;;;;;;;10.37;7.73;;;5.90;99.90;;;;;;4891286;29;20462;-80
2021/11/09 03:11:54;;;;;;;7.57;6.07;;;5.90;99.90;;;;;;4875800;29;20402;-80
2021/11/09 03:14:34;;;;;;;16.30;8.67;;;5.90;99.90;;;;;;4879139;29;20420;-80
2021/11/09 03:17:05;;;;;;;8.87;7.13;;;6.00;99.90;;;;;;4889171;29;20392;-80
2021/11/09 03:19:38;;;;;;;17.57;7.50;;;6.10;99.90;;;;;;4889711;29;20393;-80
2021/11/09 03:44:33;;;;;;;7.10;5.80;;;5.80;99.90;;;;;;4851572;29;20910;-80
2021/11/09 03:47:05;;;;;;;7.37;6.50;;;5.90;99.90;;;;;;4849619;29;20439;-79
2021/11/09 03:49:37;;;;;;;8.47;6.60;;;6.00;99.90;;;;;;4851257;29;20417;-80
2021/11/09 03:52:11;;;;;;;11.97;9.13;;;6.00;99.90;;;;;;4836129;29;20391;-80
2021/11/09 03:54:38;;;;;;;8.80;7.20;;;6.20;99.90;;;;;;4849977;29;20411;-80
2021/11/09 03:57:21;;;;;;;11.57;6.27;;;6.20;99.90;;;;;;4850733;29;20481;-79
2021/11/09 04:00:05;;;;;;;14.43;7.43;;;6.40;99.90;;;;;;4862937;29;20438;-80
2021/11/09 04:02:57;;;;;;;10.77;7.13;;;6.40;99.90;;;;;;4852056;29;20386;-80
2021/11/09 04:05:28;;;;;;;15.80;9.13;;;6.50;99.90;;;;;;4878195;29;20848;-80
2021/11/09 04:08:03;;;;;;;7.60;6.90;;;6.70;99.90;;;;;;4904265;29;20513;-80
2021/11/09 04:10:46;;;;;;;10.40;8.80;;;6.60;99.90;;;;;;4875005;29;20425;-80
2021/11/09 04:13:28;;;;;;;12.60;7.40;;;6.50;99.90;;;;;;4915345;29;20412;-80
2021/11/09 04:16:26;;;;;;;18.10;6.70;;;6.40;99.90;;;;;;4981700;28;20427;-80
2021/11/09 04:18:56;;;;;;;16.90;7.73;;;6.20;99.90;;;;;;4988220;28;20444;-79
2021/11/09 04:24:29;;;;;;;12.43;7.70;;;6.10;99.90;;;;;;4963396;29;20823;-80
2021/11/09 04:27:27;;;;;;;13.07;7.40;;;6.10;99.90;;;;;;4922803;29;20412;-80
2021/11/09 04:45:03;;;;;;;14.63;8.03;;;6.30;99.90;;;;;;4942033;29;20375;-80
2021/11/09 04:47:34;;;;;;;7.60;6.20;;;6.10;99.90;;;;;;4941666;29;20424;-79
2021/11/09 04:52:26;;;;;;;8.60;7.47;;;6.10;99.90;;;;;;4907148;29;20462;-80
2021/11/09 05:11:39;;;;;;;8.57;7.13;;;6.20;99.90;;;;;;4943920;28;20381;-80
2021/11/09 05:14:24;;;;;;;9.17;7.33;;;6.50;99.90;;;;;;4994975;28;20450;-80
2021/11/09 05:16:57;;;;;;;11.63;8.23;;;6.60;99.90;;;;;;4979626;28;20411;-80
2021/11/09 05:19:25;;;;;;;9.87;8.30;;;6.60;99.90;;;;;;4971507;28;20427;-80
2021/11/09 05:21:53;;;;;;;7.90;6.80;;;6.60;99.90;;;;;;4999747;28;20584;-80
2021/11/09 05:24:23;;;;;;;12.87;8.77;;;6.40;99.90;;;;;;4999089;28;20372;-80
2021/11/09 05:26:50;;;;;;;13.27;9.70;;;6.20;99.90;;;;;;4998897;28;20490;-80
2021/11/09 05:29:20;;;;;;;9.50;7.13;;;6.20;99.90;;;;;;4983288;28;20385;-80
2021/11/09 05:31:56;;;;;;;13.77;8.53;;;6.20;99.90;;;;;;4966678;28;20907;-80
2021/11/09 05:34:30;;;;;;;8.60;7.70;;;6.40;99.90;;;;;;4999285;28;20383;-79
2021/11/09 05:37:00;;;;;;;10.30;7.53;;;6.50;99.90;;;;;;5002257;28;20397;-78
2021/11/09 05:39:33;;;;;;;19.43;7.87;;;6.50;99.90;;;;;;4988101;28;20442;-80
2021/11/09 05:42:00;;;;;;;14.63;7.80;;;6.40;99.90;;;;;;5019787;28;20408;-78
2021/11/09 05:44:27;;;;;;;11.77;8.67;;;6.40;99.90;;;;;;5023640;28;20416;-78
2021/11/09 05:46:56;;;;;;;17.07;7.50;;;6.40;99.90;;;;;;4994487;28;20471;-80
2021/11/09 05:49:43;;;;;;;10.20;8.30;;;6.30;99.90;;;;;;5013587;28;20419;-80
2021/11/09 05:52:29;;;;;;;17.70;6.57;;;6.20;99.90;;;;;;4982777;28;20416;-80
2021/11/09 05:54:56;;;;;;;6.63;5.80;;;6.40;99.90;;;;;;5000621;28;20417;-79
2021/11/09 05:57:22;;;;;;;9.77;7.37;;;6.40;99.90;;;;;;5003331;28;20417;-77
2021/11/09 05:59:48;;;;;;;9.47;7.50;;;6.50;99.90;;;;;;4925066;29;20462;-79
2021/11/09 06:02:40;;;;;;;14.73;6.83;;;6.50;99.90;;;;;;4925589;29;20395;-78
2021/11/09 06:05:09;;;;;;;9.83;7.10;;;6.40;99.90;;;;;;4913177;29;20484;-79
2021/11/09 06:07:35;;;;;;;14.87;7.43;;;6.40;99.90;;;;;;4870572;29;20392;-77
2021/11/09 06:10:01;;;;;;;13.10;6.57;;;6.40;99.90;;;;;;4834185;29;20480;-77
2021/11/09 06:12:36;;;;;;;11.37;8.40;;;6.20;99.90;;;;;;4805964;29;20450;-77
2021/11/09 06:15:27;;;;;;;13.70;7.47;;;6.10;99.90;;;;;;4817277;29;20411;-79
2021/11/09 06:18:15;;;;;;;16.60;8.50;;;6.10;99.90;;;;;;4840732;29;20513;-79
2021/11/09 06:20:41;;;;;;;14.73;10.30;;;6.20;99.90;;;;;;4853240;29;20460;-80
2021/11/09 06:23:08;;;;;;;17.00;11.07;;;6.30;99.90;;;;;;4816777;29;20403;-80
2021/11/09 06:25:43;;;;;;;16.50;12.10;;;6.30;99.90;;;;;;4816613;29;20196;-80
2021/11/09 06:28:09;;;;;;;18.70;11.57;;;6.40;99.90;;;;;;4805205;29;20410;-80
2021/11/09 06:30:38;;;;;;;12.93;11.20;;;6.50;99.90;;;;;;4811790;29;20399;-80
2021/11/09 06:33:05;;;;;;;8.83;7.47;;;6.50;99.90;;;;;;4818930;29;20417;-80
2021/11/09 06:35:37;;;;;;;11.50;8.43;;;6.50;99.90;;;;;;4857068;29;20799;-80
2021/11/09 06:38:04;;;;;;;14.90;11.33;;;6.10;99.90;;;;;;4853873;29;20560;-80
2021/11/09 06:40:30;;;;;;;22.03;13.40;;;6.20;99.90;;;;;;4886562;29;20485;-80
2021/11/09 06:42:58;;;;;;;16.23;11.03;;;6.20;99.90;;;;;;4891247;29;20416;-79
2021/11/09 06:45:28;;;;;;;19.03;10.20;;;6.30;99.90;;;;;;4914030;29;20516;-78
2021/11/09 06:47:55;;;;;;;11.87;8.83;;;6.30;99.90;;;;;;4929214;29;20425;-78
2021/11/09 06:50:22;;;;;;;49.77;8.63;;;6.20;99.90;;;;;;4932000;29;20486;-78
2021/11/09 06:52:48;;;;;;;13.90;7.40;;;5.60;99.90;;;;;;4916074;29;20437;-78
2021/11/09 06:55:14;;;;;;;14.53;7.80;;;5.70;99.90;;;;;;4930563;29;20450;-78
2021/11/09 06:58:01;;;;;;;10.20;7.17;;;5.90;99.90;;;;;;4938887;28;20430;-79
2021/11/09 07:00:28;;;;;;;20.63;7.03;;;6.10;99.90;;;;;;4918792;29;20475;-76
2021/11/09 07:02:54;;;;;;;13.23;8.17;;;6.20;99.90;;;;;;4915325;29;20876;-77
2021/11/09 07:05:21;;;;;;;11.17;8.37;;;6.20;99.90;;;;;;4942246;29;20465;-79
2021/11/09 07:07:47;;;;;;;40.03;11.30;;;6.30;99.90;;;;;;4878614;29;20257;-78
2021/11/09 07:10:16;;;;;;;14.90;7.27;;;6.30;99.90;;;;;;4871107;29;20401;-79
2021/11/09 07:12:46;;;;;;;10.20;8.17;;;6.30;99.90;;;;;;4916592;29;20473;-81
2021/11/09 07:15:14;;;;;;;28.53;10.10;;;6.20;99.90;;;;;;4890578;29;21064;-78
2021/11/09 07:17:40;;;;;;;16.20;8.50;;;6.30;99.90;;;;;;4915454;29;20440;-80
2021/11/09 07:20:11;;;;;;;14.40;7.10;;;6.20;99.90;;;;;;4929325;29;20569;-79
2021/11/09 07:22:40;;;;;;;22.10;7.30;;;6.20;99.90;;;;;;4926650;29;20901;-79
2021/11/09 07:25:10;;;;;;;8.70;7.60;;;6.20;99.90;;;;;;4912935;29;20552;-80
2021/11/09 07:27:38;;;;;;;17.37;8.10;;;6.10;99.90;;;;;;4938505;29;20454;-80
2021/11/09 07:30:06;;;;;;;9.10;6.90;;;6.20;99.90;;;;;;4930488;29;20423;-80
2021/11/09 07:32:36;;;;;;;18.33;6.63;;;6.20;99.90;;;;;;4947695;29;20402;-79
2021/11/09 07:35:08;;;;;;;19.93;6.27;;;6.00;99.90;;;;;;4927508;29;20475;-80
2021/11/09 07:37:34;;;;;;;12.23;6.80;;;5.60;99.90;;;;;;4917082;29;20575;-81
2021/11/09 07:40:00;;;;;;;33.40;7.80;;;5.50;99.90;;;;;;4967491;29;20517;-79
2021/11/09 07:42:26;;;;;;;27.97;7.70;;;5.40;99.90;;;;;;4968060;29;20406;-81
2021/11/09 07:44:53;;;;;;;11.43;5.97;;;5.00;99.90;;;;;;4956707;29;20413;-81
2021/11/09 07:47:24;;;;;;;11.10;6.40;;;5.20;99.90;;;;;;4963878;29;20192;-80
2021/11/09 07:49:51;;;;;;;20.83;9.25;;;5.40;99.90;;;;;;4949582;29;20450;-80
2021/11/09 07:52:17;;;;;;;14.30;6.80;;;5.40;99.90;;;;;;4971197;28;20196;-79
2021/11/09 07:54:47;;;;;;;16.17;6.47;;;5.70;99.90;;;;;;4969919;29;20505;-80
2021/11/09 07:57:14;;;;;;;15.40;6.27;;;5.80;99.90;;;;;;4935993;29;20438;-80
2021/11/09 07:59:52;;;;;;;25.47;7.03;;;6.00;99.90;;;;;;4965530;29;20438;-80
2021/11/09 08:02:29;;;;;;;12.07;6.40;;;6.00;99.90;;;;;;4951187;29;20401;-80
2021/11/09 08:05:00;;;;;;;16.57;5.97;;;6.00;99.90;;;;;;4966500;28;20515;-80
2021/11/09 08:07:31;;;;;;;14.30;6.90;;;6.10;99.90;;;;;;5054606;28;20530;-80
2021/11/09 08:09:57;;;;;;;13.50;5.67;;;6.10;99.90;;;;;;5079759;28;20399;-80
2021/11/09 08:12:22;;;;;;;12.60;6.17;;;6.10;99.90;;;;;;5114280;28;20479;-80
2021/11/09 08:14:48;;;;;;;12.30;5.60;;;6.10;99.90;;;;;;5092979;28;20177;-80
2021/11/09 08:17:15;;;;;;;26.97;5.60;;;6.00;99.90;;;;;;5089608;28;20185;-80
2021/11/09 08:19:42;;;;;;;12.93;7.30;;;5.90;99.90;;;;;;5107515;28;20403;-80
2021/11/09 08:22:08;;;;;;;7.47;5.13;;;6.00;99.90;;;;;;5093663;28;20889;-81
2021/11/09 08:24:34;;;;;;;15.30;6.63;;;6.00;99.90;;;;;;5107726;28;20404;-80
2021/11/09 08:27:06;;;;;;;31.57;7.57;;;6.10;99.90;;;;;;5089217;28;21116;-80
2021/11/09 08:29:33;;;;;;;13.67;8.00;;;6.20;99.90;;;;;;5112772;28;20390;-79
2021/11/09 08:32:00;;;;;;;7.97;6.20;;;6.20;99.90;;;;;;5096906;28;20395;-78
2021/11/09 08:34:30;;;;;;;11.70;6.80;;;6.20;99.90;;;;;;5068558;28;20448;-79
2021/11/09 08:36:56;;;;;;;14.33;5.90;;;6.30;99.90;;;;;;5097754;28;20428;-80
2021/11/09 08:42:13;;;;;;;10.23;6.30;;;6.20;99.90;;;;;;5066007;28;20419;-79
2021/11/09 08:47:33;;;;;;;7.67;5.73;;;6.50;99.90;;;;;;5085408;28;20466;-78
2021/11/09 08:49:59;;;;;;;7.30;6.03;;;6.20;99.90;;;;;;5025642;28;20402;-80
2021/11/09 08:52:29;;;;;;;12.93;6.20;;;6.20;99.90;;;;;;5023119;28;20449;-79
2021/11/09 08:55:10;;;;;;;8.00;7.20;;;6.30;99.90;;;;;;5037142;28;20192;-79
2021/11/09 08:57:58;;;;;;;11.23;7.07;;;6.50;99.90;;;;;;5011675;28;20414;-80
2021/11/09 09:05:48;;;;;;;11.07;6.70;;;6.70;99.90;;;;;;5040877;28;20431;-78
2021/11/09 09:08:14;;;;;;;11.00;7.10;;;6.60;99.90;;;;;;4984106;28;20449;-79
2021/11/09 09:10:40;;;;;;;12.47;7.27;;;6.70;99.90;;;;;;4989732;28;20463;-79
2021/11/09 09:13:05;;;;;;;9.47;6.40;;;6.70;99.90;;;;;;5015353;28;20262;-79
2021/11/09 09:15:32;;;;;;;6.93;6.23;;;6.80;99.90;;;;;;5003107;28;20440;-79
2021/11/09 09:17:59;;;;;;;8.37;6.47;;;6.90;99.90;;;;;;4986882;28;20199;-80
2021/11/09 09:20:29;;;;;;;8.70;7.73;;;7.00;99.90;;;;;;5014878;28;20973;-81
2021/11/09 09:23:06;;;;;;;8.37;6.00;;;7.00;99.90;;;;;;5003966;28;20784;-79
2021/11/09 09:25:42;;;;;;;11.03;6.83;;;7.10;99.90;;;;;;5015624;28;20420;-80
2021/11/09 09:31:09;;;;;;;8.00;6.40;;;7.00;99.90;;;;;;5026394;28;20438;-81
2021/11/09 09:52:50;;;;;;;9.03;5.70;;;7.20;99.90;;;;;;5089459;28;20476;-79
2021/11/09 09:55:22;;;;;;;9.20;5.97;;;7.10;99.90;;;;;;5094535;28;20894;-80
2021/11/09 09:57:49;;;;;;;8.03;6.80;;;7.30;99.90;;;;;;5090937;28;20401;-78
2021/11/09 10:00:36;;;;;;;22.33;7.20;;;7.40;99.90;;;;;;5079694;28;20466;-79
2021/11/09 10:03:05;;;;;;;6.33;5.23;;;7.40;99.90;;;;;;5065392;28;20491;-80
2021/11/09 10:05:38;;;;;;;7.80;6.73;;;7.50;99.90;;;;;;5102525;28;20411;-81
2021/11/09 10:09:04;;;;;;;8.30;6.33;;;7.70;99.90;;;;;;5090354;28;20410;-81
2021/11/09 10:11:37;;;;;;;11.67;5.70;;;7.80;99.90;;;;;;5006974;28;20440;-79
2021/11/09 10:14:04;;;;;;;12.13;7.60;;;7.80;99.90;;;;;;5008748;28;20453;-80
2021/11/09 10:16:34;;;;;;;6.47;5.87;;;8.20;99.90;;;;;;4992878;28;20404;-80
2021/11/09 10:19:00;;;;;;;8.83;7.50;;;8.50;99.90;;;;;;4993055;28;20435;-80
2021/11/09 10:21:36;;;;;;;10.23;9.20;;;9.30;99.90;;;;;;4994040;28;20488;-80
2021/11/09 10:24:03;;;;;;;7.90;7.10;;;9.50;99.90;;;;;;5001514;28;20505;-81
2021/11/09 10:26:35;;;;;;;7.47;6.77;;;9.90;99.90;;;;;;5008288;28;20432;-79
2021/11/09 10:29:09;;;;;;;10.37;8.63;;;10.60;99.90;;;;;;5012120;28;20411;-80
2021/11/09 10:31:41;;;;;;;13.23;8.00;;;10.50;99.90;;;;;;4990814;28;20483;-80
2021/11/09 10:34:25;;;;;;;6.80;6.10;;;10.70;99.90;;;;;;5028998;28;20422;-80
2021/11/09 10:37:12;;;;;;;6.47;5.83;;;11.20;99.90;;;;;;5013209;28;20418;-81
2021/11/09 10:39:37;;;;;;;9.40;6.27;;;11.70;99.90;;;;;;5018213;28;20488;-81
2021/11/09 10:42:12;;;;;;;6.93;5.37;;;14.50;99.90;;;;;;5051951;28;20462;-80
2021/11/09 10:44:39;;;;;;;7.17;6.10;;;14.70;99.90;;;;;;5079368;28;20194;-79
2021/11/09 10:47:26;;;;;;;8.67;6.70;;;15.40;99.90;;;;;;5093343;28;20461;-78
2021/11/09 10:50:00;;;;;;;8.50;7.43;;;15.60;99.90;;;;;;5057138;28;20425;-79
2021/11/09 10:52:38;;;;;;;7.03;6.40;;;15.30;99.90;;;;;;5071902;28;20435;-79
2021/11/09 10:55:33;;;;;;;7.30;6.00;;;16.00;99.90;;;;;;5045293;28;20569;-80
2021/11/09 10:58:25;;;;;;;8.77;5.90;;;16.00;99.90;;;;;;5021712;28;20415;-79
2021/11/09 11:03:16;;;;;;;7.50;6.60;;;16.70;99.90;;;;;;5012830;28;20465;-79
2021/11/09 11:03:54;;;;;;;8.83;6.67;;;17.10;99.90;;;;;;4996784;28;20437;-78
2021/11/09 11:06:23;;;;;;;5.73;5.23;;;16.50;99.90;;;;;;4983956;28;20455;-79
2021/11/09 11:08:55;;;;;;;5.23;4.77;;;16.80;99.90;;;;;;4996016;28;20458;-80
2021/11/09 11:11:33;;;;;;;6.03;5.53;;;17.30;99.90;;;;;;4991605;28;20432;-79
2021/11/09 11:14:12;;;;;;;7.83;5.13;;;17.20;99.90;;;;;;4970394;28;20413;-82
2021/11/09 11:17:00;;;;;;;7.40;6.20;;;18.00;99.90;;;;;;5023553;28;20423;-82
2021/11/09 11:19:43;;;;;;;5.77;5.20;;;19.00;99.90;;;;;;4997940;28;20460;-80
2021/11/09 11:22:15;;;;;;;9.13;6.10;;;18.80;99.90;;;;;;5007566;28;20533;-82
2021/11/09 11:24:42;;;;;;;8.30;5.73;;;17.70;99.90;;;;;;5003993;28;20436;-80
2021/11/09 11:27:10;;;;;;;6.93;6.30;;;17.80;99.90;;;;;;5004768;28;20414;-81
2021/11/09 11:29:38;;;;;;;7.63;6.03;;;17.70;99.90;;;;;;5007019;28;20497;-81
2021/11/09 11:32:10;;;;;;;6.77;6.17;;;19.30;99.90;;;;;;4993474;28;20461;-80
2021/11/09 11:34:40;;;;;;;6.50;5.90;;;18.20;99.90;;;;;;5024150;28;20428;-82
2021/11/09 11:37:07;;;;;;;7.00;6.30;;;17.80;99.90;;;;;;5043230;28;20462;-80
2021/11/09 11:39:36;;;;;;;9.80;6.50;;;19.00;99.90;;;;;;5062595;28;20474;-81
2021/11/09 11:42:08;;;;;;;6.47;5.83;;;20.10;99.90;;;;;;5049380;28;20540;-80
2021/11/09 11:44:38;;;;;;;8.20;7.27;;;21.30;99.90;;;;;;5017805;28;20591;-81
2021/11/09 11:47:17;;;;;;;8.87;6.70;;;22.10;99.90;;;;;;5025555;28;20432;-80
2021/11/09 11:49:50;;;;;;;10.13;6.07;;;22.00;99.90;;;;;;5035327;28;20433;-80
2021/11/09 11:52:22;;;;;;;6.20;5.60;;;21.30;99.90;;;;;;5064466;28;20430;-81
2021/11/09 11:54:54;;;;;;;6.90;6.30;;;22.30;99.90;;;;;;5063080;28;20898;-81
2021/11/09 11:57:43;;;;;;;7.23;6.53;;;22.40;98.10;;;;;;5064364;28;20462;-80
2021/11/09 12:00:52;;;;;;;7.90;5.63;;;21.10;98.00;;;;;;5043213;28;20439;-81
2021/11/09 12:03:36;;;;;;;8.70;7.90;;;21.80;98.00;;;;;;5085220;28;20900;-80
2021/11/09 12:06:38;;;;;;;6.60;5.93;;;21.90;96.40;;;;;;5100147;28;20430;-81
2021/11/09 12:09:04;;;;;;;7.03;6.33;;;20.40;96.70;;;;;;5050416;28;20420;-80
2021/11/09 12:11:35;;;;;;;6.40;5.90;;;20.30;99.20;;;;;;5028834;28;20457;-80
2021/11/09 12:14:17;;;;;;;7.00;6.30;;;20.70;98.30;;;;;;5066868;28;20187;-80
2021/11/09 12:16:52;;;;;;;6.57;5.80;;;20.90;97.90;;;;;;5044358;28;20493;-79
2021/11/09 12:19:49;;;;;;;7.50;6.20;;;20.80;97.30;;;;;;5036530;28;20926;-79
2021/11/09 12:22:22;;;;;;;7.00;6.30;;;21.00;97.30;;;;;;5050481;28;20438;-78
2021/11/09 12:24:53;;;;;;;6.97;6.37;;;20.60;96.70;;;;;;5051604;28;20418;-81
2021/11/09 12:27:29;;;;;;;10.27;5.80;;;20.60;97.30;;;;;;5058173;28;20452;-79
2021/11/09 12:30:02;;;;;;;5.40;4.97;;;20.50;97.20;;;;;;5059830;28;20448;-81
2021/11/09 12:32:35;;;;;;;11.00;6.77;;;19.90;97.30;;;;;;5003416;28;20913;-80
2021/11/09 12:35:26;;;;;;;6.80;6.07;;;20.20;97.00;;;;;;4956998;28;20422;-80
2021/11/09 12:38:13;;;;;;;6.80;6.10;;;19.50;98.10;;;;;;4931936;29;20415;-80
2021/11/09 12:40:51;;;;;;;6.03;5.47;;;19.80;99.10;;;;;;4979757;28;20475;-81
2021/11/09 12:43:43;;;;;;;5.50;5.00;;;20.40;98.10;;;;;;4986258;28;20429;-81
2021/11/09 12:46:22;;;;;;;5.30;4.90;;;20.40;97.30;;;;;;4992271;28;20436;-81
2021/11/09 12:49:06;;;;;;;5.50;5.10;;;20.80;96.30;;;;;;4969358;28;20446;-80
2021/11/09 12:51:35;;;;;;;6.23;4.60;;;21.00;95.70;;;;;;4961382;28;20449;-82
2021/11/09 12:54:08;;;;;;;5.63;5.10;;;21.10;95.30;;;;;;4969872;28;20476;-81
2021/11/09 12:56:43;;;;;;;6.17;5.00;;;20.70;95.80;;;;;;4946642;28;20467;-80
2021/11/09 12:59:19;;;;;;;8.20;6.10;;;20.10;96.70;;;;;;4972143;28;20429;-79
2021/11/09 13:02:02;;;;;;;6.83;4.53;;;20.20;97.00;;;;;;4966857;28;20462;-77
2021/11/09 13:04:47;;;;;;;4.70;4.23;;;20.70;96.10;;;;;;5019042;28;20408;-79
2021/11/09 13:07:34;;;;;;;5.87;5.27;;;20.50;95.10;;;;;;5020881;28;20962;-80
2021/11/09 13:10:07;;;;;;;5.57;4.93;;;20.60;95.20;;;;;;5030945;28;22416;-80
2021/11/09 13:12:35;;;;;;;5.90;5.03;;;21.00;94.50;;;;;;5066628;28;20683;-80
2021/11/09 13:15:13;;;;;;;5.60;4.93;;;21.30;93.10;;;;;;5038090;28;20476;-80
2021/11/09 13:17:50;;;;;;;11.93;5.93;;;21.40;93.70;;;;;;5009926;28;20793;-80
2021/11/09 13:20:24;;;;;;;6.47;5.87;;;21.30;93.90;;;;;;5019653;28;20462;-79
2021/11/09 13:22:59;;;;;;;7.43;5.90;;;21.30;93.50;;;;;;4997485;28;20459;-80
2021/11/09 13:25:36;;;;;;;6.63;5.00;;;21.40;93.50;;;;;;5006971;28;20428;-79
2021/11/09 13:28:09;;;;;;;6.23;5.63;;;21.30;92.90;;;;;;5017905;28;20439;-80
2021/11/09 13:30:35;;;;;;;6.93;5.37;;;21.00;92.90;;;;;;5003631;28;21078;-80
2021/11/09 13:33:01;;;;;;;6.13;5.53;;;20.60;92.60;;;;;;5023099;28;21498;-80
2021/11/09 13:35:31;;;;;;;5.10;4.60;;;19.20;94.30;;;;;;4992897;28;20436;-80
2021/11/09 13:38:12;;;;;;;5.50;5.00;;;17.40;97.30;;;;;;4969587;28;20245;-80
2021/11/09 13:40:49;;;;;;;6.60;5.90;;;18.70;96.50;;;;;;4967559;29;21270;-79
2021/11/09 13:43:25;;;;;;;4.10;3.37;;;17.80;99.40;;;;;;4950355;29;20439;-80
2021/11/09 13:46:10;;;;;;;4.53;3.30;;;18.60;93.80;;;;;;4902117;29;20556;-79
2021/11/09 13:48:42;;;;;;;5.93;2.50;;;17.30;93.00;;;;;;4919687;29;20519;-79
2021/11/09 13:51:12;;;;;;;3.03;2.73;;;16.60;92.40;;;;;;4922681;29;20487;-80
2021/11/09 13:53:45;;;;;;;2.60;2.10;;;15.90;92.20;;;;;;4931180;29;20432;-80
2021/11/09 13:56:15;;;;;;;1.93;1.63;;;14.90;94.20;;;;;;4946871;28;20443;-78
2021/11/09 13:59:05;;;;;;;3.83;2.47;;;14.40;95.30;;;;;;4935292;29;20448;-80
2021/11/09 14:01:36;;;;;;;4.10;3.03;;;13.50;95.70;;;;;;4941586;29;20526;-81
2021/11/09 14:04:18;;;;;;;5.83;1.70;;;13.10;97.40;;;;;;4953101;29;20425;-81
2021/11/09 14:07:09;;;;;;;4.47;2.70;;;13.20;98.50;;;;;;4970315;29;20423;-82
2021/11/09 14:12:43;;;;;;;1.80;1.70;;;12.80;99.90;;;;;;4915650;29;20932;-80
2021/11/09 14:15:16;;;;;;;2.03;1.83;;;12.80;99.90;;;;;;4908850;29;20873;-80
2021/11/09 14:18:21;;;;;;;3.50;2.43;;;12.60;99.90;;;;;;4932071;29;20435;-79
2021/11/09 14:20:54;;;;;;;4.00;2.83;;;12.50;99.90;;;;;;4908964;29;20437;-80
2021/11/09 14:23:44;;;;;;;5.47;4.97;;;12.50;99.90;;;;;;4915221;29;20489;-79
2021/11/09 14:26:26;;;;;;;3.90;2.57;;;12.60;99.90;;;;;;4949476;29;20426;-80
2021/11/09 14:28:56;;;;;;;2.17;1.97;;;12.60;99.90;;;;;;4963233;28;20438;-80
2021/11/09 14:31:26;;;;;;;1.80;1.70;;;12.40;99.90;;;;;;4947287;28;20506;-80
2021/11/09 14:34:13;;;;;;;1.97;1.87;;;12.20;99.90;;;;;;4977641;28;20466;-80
2021/11/09 14:36:42;;;;;;;1.97;1.70;;;12.30;99.90;;;;;;4990493;28;20433;-79
2021/11/09 14:39:14;;;;;;;2.40;1.83;;;12.30;99.90;;;;;;4962304;28;20461;-81
2021/11/09 14:42:04;;;;;;;2.20;1.98;;;12.10;99.90;;;;;;5042250;28;20444;-80
2021/11/09 14:45:03;;;;;;;2.30;2.10;;;12.00;99.90;;;;;;5063121;28;20646;-80
2021/11/09 14:47:38;;;;;;;2.27;2.07;;;11.90;99.90;;;;;;5013245;28;20522;-80
2021/11/09 14:50:11;;;;;;;2.87;2.07;;;11.80;99.90;;;;;;5048195;28;20510;-80
2021/11/09 14:52:43;;;;;;;2.90;1.80;;;11.90;99.90;;;;;;5042533;28;20451;-80
2021/11/09 14:55:45;;;;;;;4.30;2.40;;;11.90;99.90;;;;;;5070420;28;20431;-76
2021/11/09 14:58:53;;;;;;;3.93;2.10;;;11.80;99.90;;;;;;5018213;28;20450;-80
2021/11/09 15:01:33;;;;;;;3.13;2.50;;;11.70;99.90;;;;;;4995584;28;20437;-80
2021/11/09 15:04:22;;;;;;;2.53;2.00;;;11.70;99.90;;;;;;4965404;28;20834;-80